Terminal Aerodrome Forecast
Issued by NWS

Home | Current Version | Previous Version | Text Only | Print | Product List | Glossary On
Versions: 1 2 3 4 5 6 7 8 9 10 11 12 13 14
339
FTUS44 KBMX 311723
TAFTOI
TAF
KTOI 311723Z 3118/0118 VRB04KT P6SM SCT060
     FM010000 00000KT P6SM SCT250
      TEMPO 0110/0113 5SM BR=

USA.gov is the U.S. government's official web portal to all federal, state and local government web resources and services.